sensor_id;sensor_type;location;lat;lon;timestamp;P1;durP1;ratioP1;P2;durP2;ratioP2
57561;SDS011;43397;51.530;5.974;2023-05-19T00:00:55;18.20;;;11.05;;
57561;SDS011;43397;51.530;5.974;2023-05-19T00:03:21;16.70;;;10.57;;
57561;SDS011;43397;51.530;5.974;2023-05-19T00:05:48;14.07;;;10.00;;
57561;SDS011;43397;51.530;5.974;2023-05-19T00:08:17;19.40;;;11.30;;
57561;SDS011;43397;51.530;5.974;2023-05-19T00:10:44;16.90;;;10.00;;
57561;SDS011;43397;51.530;5.974;2023-05-19T00:13:10;20.83;;;10.18;;
57561;SDS011;43397;51.530;5.974;2023-05-19T00:15:36;15.98;;;9.75;;
57561;SDS011;43397;51.530;5.974;2023-05-19T00:18:02;14.43;;;10.18;;
57561;SDS011;43397;51.530;5.974;2023-05-19T00:20:28;18.33;;;10.43;;
57561;SDS011;43397;51.530;5.974;2023-05-19T00:22:55;17.67;;;9.80;;
57561;SDS011;43397;51.530;5.974;2023-05-19T00:25:21;14.35;;;10.43;;
57561;SDS011;43397;51.530;5.974;2023-05-19T00:27:46;14.02;;;8.90;;
57561;SDS011;43397;51.530;5.974;2023-05-19T00:30:12;16.33;;;9.35;;
57561;SDS011;43397;51.530;5.974;2023-05-19T00:32:38;16.77;;;9.95;;
57561;SDS011;43397;51.530;5.974;2023-05-19T00:35:04;15.73;;;9.68;;
57561;SDS011;43397;51.530;5.974;2023-05-19T00:37:31;13.32;;;9.27;;
57561;SDS011;43397;51.530;5.974;2023-05-19T00:39:58;13.27;;;8.65;;
57561;SDS011;43397;51.530;5.974;2023-05-19T00:42:23;14.48;;;8.82;;
57561;SDS011;43397;51.530;5.974;2023-05-19T00:44:49;16.30;;;8.73;;
57561;SDS011;43397;51.530;5.974;2023-05-19T00:47:16;18.75;;;9.68;;
57561;SDS011;43397;51.530;5.974;2023-05-19T00:49:41;13.63;;;7.97;;
57561;SDS011;43397;51.530;5.974;2023-05-19T00:52:07;14.63;;;9.07;;
57561;SDS011;43397;51.530;5.974;2023-05-19T00:54:33;15.55;;;10.32;;
57561;SDS011;43397;51.530;5.974;2023-05-19T00:57:00;17.33;;;9.20;;
57561;SDS011;43397;51.530;5.974;2023-05-19T00:59:26;16.10;;;9.02;;
57561;SDS011;43397;51.530;5.974;2023-05-19T01:01:52;14.90;;;9.13;;
57561;SDS011;43397;51.530;5.974;2023-05-19T01:04:18;14.57;;;8.82;;
57561;SDS011;43397;51.530;5.974;2023-05-19T01:06:45;15.93;;;9.57;;
57561;SDS011;43397;51.530;5.974;2023-05-19T01:09:11;15.30;;;9.02;;
57561;SDS011;43397;51.530;5.974;2023-05-19T01:11:37;15.77;;;9.02;;
57561;SDS011;43397;51.530;5.974;2023-05-19T01:14:04;16.08;;;8.70;;
57561;SDS011;43397;51.530;5.974;2023-05-19T01:16:30;16.10;;;9.32;;
57561;SDS011;43397;51.530;5.974;2023-05-19T01:19:04;14.50;;;9.52;;
57561;SDS011;43397;51.530;5.974;2023-05-19T01:21:51;13.75;;;8.35;;
57561;SDS011;43397;51.530;5.974;2023-05-19T01:24:40;13.25;;;8.77;;
57561;SDS011;43397;51.530;5.974;2023-05-19T01:27:23;13.32;;;8.60;;
57561;SDS011;43397;51.530;5.974;2023-05-19T01:30:27;15.65;;;8.85;;
57561;SDS011;43397;51.530;5.974;2023-05-19T01:32:56;17.05;;;10.23;;
57561;SDS011;43397;51.530;5.974;2023-05-19T01:35:25;14.10;;;9.68;;
57561;SDS011;43397;51.530;5.974;2023-05-19T01:37:53;16.23;;;9.30;;
57561;SDS011;43397;51.530;5.974;2023-05-19T01:40:21;14.35;;;8.77;;
57561;SDS011;43397;51.530;5.974;2023-05-19T01:42:48;16.23;;;9.77;;
57561;SDS011;43397;51.530;5.974;2023-05-19T01:45:16;18.97;;;10.63;;
57561;SDS011;43397;51.530;5.974;2023-05-19T01:47:45;15.43;;;9.98;;
57561;SDS011;43397;51.530;5.974;2023-05-19T01:50:12;17.55;;;9.85;;
57561;SDS011;43397;51.530;5.974;2023-05-19T01:52:38;14.93;;;8.88;;
57561;SDS011;43397;51.530;5.974;2023-05-19T01:55:04;17.33;;;10.57;;
57561;SDS011;43397;51.530;5.974;2023-05-19T01:57:32;15.85;;;11.15;;
57561;SDS011;43397;51.530;5.974;2023-05-19T02:00:06;18.50;;;10.85;;
57561;SDS011;43397;51.530;5.974;2023-05-19T02:02:42;15.27;;;9.55;;
57561;SDS011;43397;51.530;5.974;2023-05-19T02:05:29;16.02;;;9.20;;
57561;SDS011;43397;51.530;5.974;2023-05-19T02:08:00;14.60;;;10.10;;
57561;SDS011;43397;51.530;5.974;2023-05-19T02:10:35;16.95;;;10.07;;
57561;SDS011;43397;51.530;5.974;2023-05-19T02:13:05;20.33;;;11.00;;
57561;SDS011;43397;51.530;5.974;2023-05-19T02:15:36;14.52;;;9.93;;
57561;SDS011;43397;51.530;5.974;2023-05-19T02:18:05;15.55;;;10.25;;
57561;SDS011;43397;51.530;5.974;2023-05-19T02:22:59;18.63;;;9.88;;
57561;SDS011;43397;51.530;5.974;2023-05-19T02:25:25;18.63;;;10.43;;
57561;SDS011;43397;51.530;5.974;2023-05-19T02:27:50;19.95;;;10.38;;
57561;SDS011;43397;51.530;5.974;2023-05-19T02:30:16;17.30;;;10.95;;
57561;SDS011;43397;51.530;5.974;2023-05-19T02:32:42;20.95;;;10.95;;
57561;SDS011;43397;51.530;5.974;2023-05-19T02:35:09;14.27;;;10.32;;
57561;SDS011;43397;51.530;5.974;2023-05-19T02:37:35;14.70;;;9.48;;
57561;SDS011;43397;51.530;5.974;2023-05-19T02:40:00;17.75;;;10.52;;
57561;SDS011;43397;51.530;5.974;2023-05-19T02:42:26;17.30;;;11.00;;
57561;SDS011;43397;51.530;5.974;2023-05-19T02:44:52;16.95;;;10.50;;
57561;SDS011;43397;51.530;5.974;2023-05-19T02:47:18;18.38;;;11.43;;
57561;SDS011;43397;51.530;5.974;2023-05-19T02:49:44;16.10;;;10.30;;
57561;SDS011;43397;51.530;5.974;2023-05-19T02:52:11;17.20;;;10.40;;
57561;SDS011;43397;51.530;5.974;2023-05-19T02:54:37;19.52;;;11.88;;
57561;SDS011;43397;51.530;5.974;2023-05-19T02:57:03;22.88;;;11.57;;
57561;SDS011;43397;51.530;5.974;2023-05-19T02:59:29;20.33;;;10.38;;
57561;SDS011;43397;51.530;5.974;2023-05-19T03:01:55;17.77;;;11.52;;
57561;SDS011;43397;51.530;5.974;2023-05-19T03:04:23;17.97;;;10.00;;
57561;SDS011;43397;51.530;5.974;2023-05-19T03:06:49;19.70;;;12.15;;
57561;SDS011;43397;51.530;5.974;2023-05-19T03:09:16;18.77;;;11.63;;
57561;SDS011;43397;51.530;5.974;2023-05-19T03:11:41;18.38;;;11.25;;
57561;SDS011;43397;51.530;5.974;2023-05-19T03:14:07;19.88;;;11.30;;
57561;SDS011;43397;51.530;5.974;2023-05-19T03:16:33;15.85;;;10.27;;
57561;SDS011;43397;51.530;5.974;2023-05-19T03:18:58;16.77;;;11.45;;
57561;SDS011;43397;51.530;5.974;2023-05-19T03:21:24;18.02;;;11.05;;
57561;SDS011;43397;51.530;5.974;2023-05-19T03:23:50;15.60;;;10.52;;
57561;SDS011;43397;51.530;5.974;2023-05-19T03:26:17;19.10;;;11.48;;
57561;SDS011;43397;51.530;5.974;2023-05-19T03:28:43;18.52;;;11.73;;
57561;SDS011;43397;51.530;5.974;2023-05-19T03:31:08;18.50;;;10.63;;
57561;SDS011;43397;51.530;5.974;2023-05-19T03:33:34;20.55;;;11.50;;
57561;SDS011;43397;51.530;5.974;2023-05-19T03:36:00;19.52;;;11.48;;
57561;SDS011;43397;51.530;5.974;2023-05-19T03:38:25;18.58;;;11.18;;
57561;SDS011;43397;51.530;5.974;2023-05-19T03:40:51;21.77;;;11.15;;
57561;SDS011;43397;51.530;5.974;2023-05-19T03:43:18;17.98;;;10.70;;
57561;SDS011;43397;51.530;5.974;2023-05-19T03:45:44;16.90;;;12.00;;
57561;SDS011;43397;51.530;5.974;2023-05-19T03:48:09;18.30;;;11.40;;
57561;SDS011;43397;51.530;5.974;2023-05-19T03:50:35;21.92;;;11.50;;
57561;SDS011;43397;51.530;5.974;2023-05-19T03:53:01;19.70;;;10.82;;
57561;SDS011;43397;51.530;5.974;2023-05-19T03:55:26;20.42;;;13.00;;
57561;SDS011;43397;51.530;5.974;2023-05-19T03:57:52;23.05;;;11.43;;
57561;SDS011;43397;51.530;5.974;2023-05-19T04:00:19;20.50;;;11.63;;
57561;SDS011;43397;51.530;5.974;2023-05-19T04:02:45;18.10;;;11.73;;
57561;SDS011;43397;51.530;5.974;2023-05-19T04:05:10;17.55;;;11.18;;
57561;SDS011;43397;51.530;5.974;2023-05-19T04:07:36;22.23;;;11.27;;
57561;SDS011;43397;51.530;5.974;2023-05-19T04:10:02;20.45;;;11.10;;
57561;SDS011;43397;51.530;5.974;2023-05-19T04:12:29;24.85;;;11.05;;
57561;SDS011;43397;51.530;5.974;2023-05-19T04:14:55;19.08;;;10.63;;
57561;SDS011;43397;51.530;5.974;2023-05-19T04:17:22;19.05;;;11.30;;
57561;SDS011;43397;51.530;5.974;2023-05-19T04:19:47;21.30;;;11.88;;
57561;SDS011;43397;51.530;5.974;2023-05-19T04:22:13;17.73;;;10.60;;
57561;SDS011;43397;51.530;5.974;2023-05-19T04:24:39;20.90;;;11.85;;
57561;SDS011;43397;51.530;5.974;2023-05-19T04:27:04;18.73;;;11.18;;
57561;SDS011;43397;51.530;5.974;2023-05-19T04:29:30;18.15;;;11.57;;
57561;SDS011;43397;51.530;5.974;2023-05-19T04:31:56;19.58;;;11.38;;
57561;SDS011;43397;51.530;5.974;2023-05-19T04:34:23;19.48;;;11.20;;
57561;SDS011;43397;51.530;5.974;2023-05-19T04:36:49;16.52;;;10.73;;
57561;SDS011;43397;51.530;5.974;2023-05-19T04:39:14;17.98;;;10.65;;
57561;SDS011;43397;51.530;5.974;2023-05-19T04:41:40;23.13;;;11.55;;
57561;SDS011;43397;51.530;5.974;2023-05-19T04:44:06;17.65;;;10.18;;
57561;SDS011;43397;51.530;5.974;2023-05-19T04:46:31;17.67;;;11.00;;
57561;SDS011;43397;51.530;5.974;2023-05-19T04:48:57;18.30;;;11.00;;
57561;SDS011;43397;51.530;5.974;2023-05-19T04:51:24;20.27;;;11.60;;
57561;SDS011;43397;51.530;5.974;2023-05-19T04:53:50;20.80;;;11.30;;
57561;SDS011;43397;51.530;5.974;2023-05-19T04:56:15;15.80;;;10.27;;
57561;SDS011;43397;51.530;5.974;2023-05-19T04:58:41;15.55;;;9.68;;
57561;SDS011;43397;51.530;5.974;2023-05-19T05:01:07;15.60;;;10.88;;
57561;SDS011;43397;51.530;5.974;2023-05-19T05:03:32;16.08;;;9.77;;
57561;SDS011;43397;51.530;5.974;2023-05-19T05:05:58;17.55;;;10.23;;
57561;SDS011;43397;51.530;5.974;2023-05-19T05:08:25;14.82;;;9.88;;
57561;SDS011;43397;51.530;5.974;2023-05-19T05:10:51;15.98;;;10.57;;
57561;SDS011;43397;51.530;5.974;2023-05-19T05:13:17;14.98;;;9.75;;
57561;SDS011;43397;51.530;5.974;2023-05-19T05:15:46;14.70;;;9.38;;
57561;SDS011;43397;51.530;5.974;2023-05-19T05:18:12;14.05;;;9.13;;
57561;SDS011;43397;51.530;5.974;2023-05-19T05:20:38;16.65;;;9.45;;
57561;SDS011;43397;51.530;5.974;2023-05-19T05:23:05;13.30;;;9.00;;
57561;SDS011;43397;51.530;5.974;2023-05-19T05:25:33;15.68;;;10.35;;
57561;SDS011;43397;51.530;5.974;2023-05-19T05:27:59;13.90;;;9.15;;
57561;SDS011;43397;51.530;5.974;2023-05-19T05:30:25;13.55;;;9.05;;
57561;SDS011;43397;51.530;5.974;2023-05-19T05:32:50;15.45;;;10.07;;
57561;SDS011;43397;51.530;5.974;2023-05-19T05:35:16;15.93;;;9.10;;
57561;SDS011;43397;51.530;5.974;2023-05-19T05:37:42;17.50;;;9.70;;
57561;SDS011;43397;51.530;5.974;2023-05-19T05:40:08;16.42;;;8.98;;
57561;SDS011;43397;51.530;5.974;2023-05-19T05:42:36;14.95;;;8.65;;
57561;SDS011;43397;51.530;5.974;2023-05-19T05:45:01;13.23;;;8.82;;
57561;SDS011;43397;51.530;5.974;2023-05-19T05:47:27;14.38;;;9.02;;
57561;SDS011;43397;51.530;5.974;2023-05-19T05:49:53;17.77;;;9.38;;
57561;SDS011;43397;51.530;5.974;2023-05-19T05:52:19;14.48;;;8.52;;
57561;SDS011;43397;51.530;5.974;2023-05-19T05:54:46;18.73;;;8.30;;
57561;SDS011;43397;51.530;5.974;2023-05-19T05:57:12;12.65;;;7.45;;
57561;SDS011;43397;51.530;5.974;2023-05-19T05:59:40;12.98;;;7.85;;
57561;SDS011;43397;51.530;5.974;2023-05-19T06:02:05;12.68;;;8.20;;
57561;SDS011;43397;51.530;5.974;2023-05-19T06:04:31;11.15;;;7.53;;
57561;SDS011;43397;51.530;5.974;2023-05-19T06:06:57;14.10;;;7.80;;
57561;SDS011;43397;51.530;5.974;2023-05-19T06:09:22;13.23;;;8.25;;
57561;SDS011;43397;51.530;5.974;2023-05-19T06:11:48;14.45;;;7.80;;
57561;SDS011;43397;51.530;5.974;2023-05-19T06:14:14;12.20;;;7.45;;
57561;SDS011;43397;51.530;5.974;2023-05-19T06:16:41;17.80;;;8.90;;
57561;SDS011;43397;51.530;5.974;2023-05-19T06:19:06;15.82;;;8.35;;
57561;SDS011;43397;51.530;5.974;2023-05-19T06:21:32;17.80;;;8.07;;
57561;SDS011;43397;51.530;5.974;2023-05-19T06:23:58;12.65;;;7.93;;
57561;SDS011;43397;51.530;5.974;2023-05-19T06:26:23;11.27;;;7.35;;
57561;SDS011;43397;51.530;5.974;2023-05-19T06:28:49;16.30;;;7.65;;
57561;SDS011;43397;51.530;5.974;2023-05-19T06:31:15;13.93;;;7.30;;
57561;SDS011;43397;51.530;5.974;2023-05-19T06:33:42;13.05;;;7.00;;
57561;SDS011;43397;51.530;5.974;2023-05-19T06:36:07;11.32;;;7.45;;
57561;SDS011;43397;51.530;5.974;2023-05-19T06:38:33;11.07;;;6.80;;
57561;SDS011;43397;51.530;5.974;2023-05-19T06:40:59;16.58;;;7.15;;
57561;SDS011;43397;51.530;5.974;2023-05-19T06:43:24;13.90;;;7.55;;
57561;SDS011;43397;51.530;5.974;2023-05-19T06:45:50;13.68;;;7.15;;
57561;SDS011;43397;51.530;5.974;2023-05-19T06:48:16;11.88;;;6.65;;
57561;SDS011;43397;51.530;5.974;2023-05-19T06:50:43;8.85;;;6.13;;
57561;SDS011;43397;51.530;5.974;2023-05-19T06:53:08;10.98;;;5.88;;
57561;SDS011;43397;51.530;5.974;2023-05-19T06:55:34;10.85;;;6.45;;
57561;SDS011;43397;51.530;5.974;2023-05-19T06:58:00;10.55;;;6.28;;
57561;SDS011;43397;51.530;5.974;2023-05-19T07:00:25;12.20;;;5.75;;
57561;SDS011;43397;51.530;5.974;2023-05-19T07:02:51;10.63;;;5.70;;
57561;SDS011;43397;51.530;5.974;2023-05-19T07:05:17;9.82;;;5.40;;
57561;SDS011;43397;51.530;5.974;2023-05-19T07:07:44;10.30;;;5.93;;
57561;SDS011;43397;51.530;5.974;2023-05-19T07:10:10;13.02;;;6.05;;
57561;SDS011;43397;51.530;5.974;2023-05-19T07:12:35;10.40;;;5.93;;
57561;SDS011;43397;51.530;5.974;2023-05-19T07:15:01;9.98;;;5.93;;
57561;SDS011;43397;51.530;5.974;2023-05-19T07:17:27;11.35;;;5.72;;
57561;SDS011;43397;51.530;5.974;2023-05-19T07:19:53;11.85;;;5.47;;
57561;SDS011;43397;51.530;5.974;2023-05-19T07:22:18;10.88;;;5.13;;
57561;SDS011;43397;51.530;5.974;2023-05-19T07:24:45;12.23;;;6.13;;
57561;SDS011;43397;51.530;5.974;2023-05-19T07:27:11;9.70;;;5.25;;
57561;SDS011;43397;51.530;5.974;2023-05-19T07:29:37;8.45;;;5.07;;
57561;SDS011;43397;51.530;5.974;2023-05-19T07:32:03;13.32;;;5.90;;
57561;SDS011;43397;51.530;5.974;2023-05-19T07:34:29;12.50;;;5.45;;
57561;SDS011;43397;51.530;5.974;2023-05-19T07:36:55;7.68;;;4.95;;
57561;SDS011;43397;51.530;5.974;2023-05-19T07:39:20;8.73;;;5.40;;
57561;SDS011;43397;51.530;5.974;2023-05-19T07:41:47;9.60;;;4.95;;
57561;SDS011;43397;51.530;5.974;2023-05-19T07:44:13;11.65;;;5.68;;
57561;SDS011;43397;51.530;5.974;2023-05-19T07:46:39;10.32;;;4.43;;
57561;SDS011;43397;51.530;5.974;2023-05-19T07:49:04;10.30;;;4.00;;
57561;SDS011;43397;51.530;5.974;2023-05-19T07:51:30;8.52;;;4.65;;
57561;SDS011;43397;51.530;5.974;2023-05-19T07:53:56;8.15;;;4.72;;
57561;SDS011;43397;51.530;5.974;2023-05-19T07:56:21;9.52;;;4.13;;
57561;SDS011;43397;51.530;5.974;2023-05-19T07:58:48;9.93;;;4.28;;
57561;SDS011;43397;51.530;5.974;2023-05-19T08:01:14;8.20;;;3.65;;
57561;SDS011;43397;51.530;5.974;2023-05-19T08:03:40;8.50;;;4.20;;
57561;SDS011;43397;51.530;5.974;2023-05-19T08:06:06;9.70;;;3.47;;
57561;SDS011;43397;51.530;5.974;2023-05-19T08:08:31;9.25;;;3.90;;
57561;SDS011;43397;51.530;5.974;2023-05-19T08:11:00;8.80;;;3.20;;
57561;SDS011;43397;51.530;5.974;2023-05-19T08:13:26;9.27;;;3.33;;
57561;SDS011;43397;51.530;5.974;2023-05-19T08:15:53;10.93;;;3.70;;
57561;SDS011;43397;51.530;5.974;2023-05-19T08:18:19;7.95;;;3.78;;
57561;SDS011;43397;51.530;5.974;2023-05-19T08:20:44;7.88;;;3.17;;
57561;SDS011;43397;51.530;5.974;2023-05-19T08:23:10;8.13;;;3.50;;
57561;SDS011;43397;51.530;5.974;2023-05-19T08:25:35;8.05;;;3.10;;
57561;SDS011;43397;51.530;5.974;2023-05-19T08:28:01;6.70;;;2.70;;
57561;SDS011;43397;51.530;5.974;2023-05-19T08:30:27;8.20;;;2.78;;
57561;SDS011;43397;51.530;5.974;2023-05-19T08:32:54;7.90;;;3.40;;
57561;SDS011;43397;51.530;5.974;2023-05-19T08:35:20;7.38;;;2.53;;
57561;SDS011;43397;51.530;5.974;2023-05-19T08:37:46;7.95;;;3.00;;
57561;SDS011;43397;51.530;5.974;2023-05-19T08:40:14;8.50;;;3.28;;
57561;SDS011;43397;51.530;5.974;2023-05-19T08:42:41;10.27;;;3.58;;
57561;SDS011;43397;51.530;5.974;2023-05-19T08:45:08;7.82;;;2.60;;
57561;SDS011;43397;51.530;5.974;2023-05-19T08:47:34;6.43;;;2.67;;
57561;SDS011;43397;51.530;5.974;2023-05-19T08:50:03;6.95;;;2.90;;
57561;SDS011;43397;51.530;5.974;2023-05-19T08:55:01;7.15;;;2.67;;
57561;SDS011;43397;51.530;5.974;2023-05-19T08:57:29;5.55;;;2.33;;
57561;SDS011;43397;51.530;5.974;2023-05-19T08:59:55;6.28;;;1.98;;
57561;SDS011;43397;51.530;5.974;2023-05-19T09:02:21;8.80;;;2.50;;
57561;SDS011;43397;51.530;5.974;2023-05-19T09:04:48;7.30;;;2.22;;
57561;SDS011;43397;51.530;5.974;2023-05-19T09:07:15;5.07;;;2.00;;
57561;SDS011;43397;51.530;5.974;2023-05-19T09:09:42;9.17;;;1.90;;
57561;SDS011;43397;51.530;5.974;2023-05-19T09:12:08;6.13;;;1.98;;
57561;SDS011;43397;51.530;5.974;2023-05-19T09:14:34;6.72;;;1.77;;
57561;SDS011;43397;51.530;5.974;2023-05-19T09:17:01;8.75;;;2.40;;
57561;SDS011;43397;51.530;5.974;2023-05-19T09:19:27;7.95;;;2.85;;
57561;SDS011;43397;51.530;5.974;2023-05-19T09:21:56;8.30;;;2.63;;
57561;SDS011;43397;51.530;5.974;2023-05-19T09:24:24;7.30;;;2.50;;
57561;SDS011;43397;51.530;5.974;2023-05-19T09:26:50;8.38;;;2.60;;
57561;SDS011;43397;51.530;5.974;2023-05-19T09:29:20;5.93;;;2.42;;
57561;SDS011;43397;51.530;5.974;2023-05-19T09:31:49;7.65;;;2.45;;
57561;SDS011;43397;51.530;5.974;2023-05-19T09:34:14;6.88;;;2.65;;
57561;SDS011;43397;51.530;5.974;2023-05-19T09:36:40;8.50;;;2.30;;
57561;SDS011;43397;51.530;5.974;2023-05-19T09:39:13;7.70;;;2.72;;
57561;SDS011;43397;51.530;5.974;2023-05-19T09:41:40;8.55;;;2.53;;
57561;SDS011;43397;51.530;5.974;2023-05-19T09:44:06;6.70;;;2.25;;
57561;SDS011;43397;51.530;5.974;2023-05-19T09:46:32;7.38;;;2.92;;
57561;SDS011;43397;51.530;5.974;2023-05-19T09:48:57;6.60;;;2.70;;
57561;SDS011;43397;51.530;5.974;2023-05-19T09:51:23;9.23;;;3.22;;
57561;SDS011;43397;51.530;5.974;2023-05-19T09:53:49;7.43;;;2.95;;
57561;SDS011;43397;51.530;5.974;2023-05-19T09:56:17;7.88;;;3.05;;
57561;SDS011;43397;51.530;5.974;2023-05-19T09:58:44;6.55;;;2.90;;
57561;SDS011;43397;51.530;5.974;2023-05-19T10:01:10;7.30;;;2.88;;
57561;SDS011;43397;51.530;5.974;2023-05-19T10:03:36;8.30;;;2.35;;
57561;SDS011;43397;51.530;5.974;2023-05-19T10:06:03;7.78;;;2.85;;
57561;SDS011;43397;51.530;5.974;2023-05-19T10:08:30;6.13;;;2.70;;
57561;SDS011;43397;51.530;5.974;2023-05-19T10:10:57;7.60;;;2.38;;
57561;SDS011;43397;51.530;5.974;2023-05-19T10:13:24;6.65;;;2.58;;
57561;SDS011;43397;51.530;5.974;2023-05-19T10:15:52;8.38;;;2.42;;
57561;SDS011;43397;51.530;5.974;2023-05-19T10:18:18;8.27;;;2.17;;
57561;SDS011;43397;51.530;5.974;2023-05-19T10:20:44;6.75;;;2.17;;
57561;SDS011;43397;51.530;5.974;2023-05-19T10:23:12;7.38;;;2.42;;
57561;SDS011;43397;51.530;5.974;2023-05-19T10:25:37;10.80;;;2.40;;
57561;SDS011;43397;51.530;5.974;2023-05-19T10:28:06;7.53;;;2.55;;
57561;SDS011;43397;51.530;5.974;2023-05-19T10:30:36;7.22;;;2.20;;
57561;SDS011;43397;51.530;5.974;2023-05-19T10:33:05;6.65;;;2.20;;
57561;SDS011;43397;51.530;5.974;2023-05-19T10:35:49;8.25;;;2.72;;
57561;SDS011;43397;51.530;5.974;2023-05-19T10:38:26;6.43;;;2.67;;
57561;SDS011;43397;51.530;5.974;2023-05-19T10:40:59;6.57;;;2.55;;
57561;SDS011;43397;51.530;5.974;2023-05-19T10:43:36;9.05;;;2.30;;
57561;SDS011;43397;51.530;5.974;2023-05-19T10:46:11;8.00;;;2.70;;
57561;SDS011;43397;51.530;5.974;2023-05-19T10:48:38;6.93;;;2.50;;
57561;SDS011;43397;51.530;5.974;2023-05-19T10:51:08;7.10;;;2.85;;
57561;SDS011;43397;51.530;5.974;2023-05-19T10:53:34;7.10;;;2.70;;
57561;SDS011;43397;51.530;5.974;2023-05-19T10:56:05;8.40;;;2.72;;
57561;SDS011;43397;51.530;5.974;2023-05-19T11:01:18;6.25;;;2.70;;
57561;SDS011;43397;51.530;5.974;2023-05-19T11:03:48;7.40;;;2.85;;
57561;SDS011;43397;51.530;5.974;2023-05-19T11:08:59;10.38;;;2.67;;
57561;SDS011;43397;51.530;5.974;2023-05-19T11:11:26;7.78;;;2.45;;
57561;SDS011;43397;51.530;5.974;2023-05-19T11:14:08;8.57;;;2.55;;
57561;SDS011;43397;51.530;5.974;2023-05-19T11:16:35;7.40;;;3.00;;
57561;SDS011;43397;51.530;5.974;2023-05-19T11:19:03;8.02;;;2.83;;
57561;SDS011;43397;51.530;5.974;2023-05-19T11:21:40;6.40;;;2.95;;
57561;SDS011;43397;51.530;5.974;2023-05-19T11:24:06;7.82;;;2.75;;
57561;SDS011;43397;51.530;5.974;2023-05-19T11:26:41;5.25;;;2.58;;
57561;SDS011;43397;51.530;5.974;2023-05-19T11:29:07;6.55;;;2.50;;
57561;SDS011;43397;51.530;5.974;2023-05-19T11:31:33;7.97;;;2.70;;
57561;SDS011;43397;51.530;5.974;2023-05-19T11:34:00;6.47;;;2.85;;
57561;SDS011;43397;51.530;5.974;2023-05-19T11:36:27;6.78;;;2.65;;
57561;SDS011;43397;51.530;5.974;2023-05-19T11:38:53;8.05;;;2.67;;
57561;SDS011;43397;51.530;5.974;2023-05-19T11:41:19;8.02;;;2.70;;
57561;SDS011;43397;51.530;5.974;2023-05-19T11:43:45;9.45;;;2.78;;
57561;SDS011;43397;51.530;5.974;2023-05-19T11:46:11;6.93;;;2.42;;
57561;SDS011;43397;51.530;5.974;2023-05-19T11:48:37;6.65;;;2.50;;
57561;SDS011;43397;51.530;5.974;2023-05-19T11:51:04;5.72;;;2.33;;
57561;SDS011;43397;51.530;5.974;2023-05-19T11:53:31;7.00;;;2.50;;
57561;SDS011;43397;51.530;5.974;2023-05-19T11:55:57;7.30;;;2.10;;
57561;SDS011;43397;51.530;5.974;2023-05-19T11:58:28;7.40;;;2.63;;
57561;SDS011;43397;51.530;5.974;2023-05-19T12:00:53;6.65;;;2.17;;
57561;SDS011;43397;51.530;5.974;2023-05-19T12:03:20;9.75;;;2.95;;
57561;SDS011;43397;51.530;5.974;2023-05-19T12:05:46;10.07;;;2.83;;
57561;SDS011;43397;51.530;5.974;2023-05-19T12:08:13;6.75;;;2.35;;
57561;SDS011;43397;51.530;5.974;2023-05-19T12:10:41;9.30;;;2.67;;
57561;SDS011;43397;51.530;5.974;2023-05-19T12:13:07;7.70;;;2.42;;
57561;SDS011;43397;51.530;5.974;2023-05-19T12:15:33;6.72;;;2.47;;
57561;SDS011;43397;51.530;5.974;2023-05-19T12:18:00;7.97;;;2.70;;
57561;SDS011;43397;51.530;5.974;2023-05-19T12:20:26;6.53;;;2.40;;
57561;SDS011;43397;51.530;5.974;2023-05-19T12:22:54;7.55;;;2.53;;
57561;SDS011;43397;51.530;5.974;2023-05-19T12:25:20;5.70;;;2.63;;
57561;SDS011;43397;51.530;5.974;2023-05-19T12:27:47;7.30;;;3.13;;
57561;SDS011;43397;51.530;5.974;2023-05-19T12:30:13;8.05;;;2.75;;
57561;SDS011;43397;51.530;5.974;2023-05-19T12:32:40;8.13;;;2.20;;
57561;SDS011;43397;51.530;5.974;2023-05-19T12:35:07;8.02;;;3.03;;
57561;SDS011;43397;51.530;5.974;2023-05-19T12:37:33;6.13;;;2.30;;
57561;SDS011;43397;51.530;5.974;2023-05-19T12:40:02;5.50;;;2.40;;
57561;SDS011;43397;51.530;5.974;2023-05-19T12:42:28;6.50;;;2.53;;
57561;SDS011;43397;51.530;5.974;2023-05-19T12:44:56;10.13;;;3.15;;
57561;SDS011;43397;51.530;5.974;2023-05-19T12:47:28;8.93;;;2.75;;
57561;SDS011;43397;51.530;5.974;2023-05-19T12:49:54;6.55;;;2.58;;
57561;SDS011;43397;51.530;5.974;2023-05-19T12:52:21;8.43;;;3.03;;
57561;SDS011;43397;51.530;5.974;2023-05-19T12:54:46;9.93;;;2.70;;
57561;SDS011;43397;51.530;5.974;2023-05-19T12:57:14;7.18;;;2.47;;
57561;SDS011;43397;51.530;5.974;2023-05-19T12:59:41;7.87;;;2.93;;
57561;SDS011;43397;51.530;5.974;2023-05-19T13:02:08;5.95;;;2.35;;
57561;SDS011;43397;51.530;5.974;2023-05-19T13:04:34;12.63;;;2.47;;
57561;SDS011;43397;51.530;5.974;2023-05-19T13:06:59;7.82;;;2.67;;
57561;SDS011;43397;51.530;5.974;2023-05-19T13:09:25;8.55;;;2.58;;
57561;SDS011;43397;51.530;5.974;2023-05-19T13:11:51;7.28;;;2.00;;
57561;SDS011;43397;51.530;5.974;2023-05-19T13:14:16;7.90;;;2.78;;
57561;SDS011;43397;51.530;5.974;2023-05-19T13:16:42;10.00;;;2.67;;
57561;SDS011;43397;51.530;5.974;2023-05-19T13:19:09;9.32;;;3.20;;
57561;SDS011;43397;51.530;5.974;2023-05-19T13:21:35;11.35;;;2.88;;
57561;SDS011;43397;51.530;5.974;2023-05-19T13:24:01;8.38;;;2.88;;
57561;SDS011;43397;51.530;5.974;2023-05-19T13:26:27;7.95;;;2.78;;
57561;SDS011;43397;51.530;5.974;2023-05-19T13:28:52;6.03;;;2.20;;
57561;SDS011;43397;51.530;5.974;2023-05-19T13:31:18;8.00;;;3.35;;
57561;SDS011;43397;51.530;5.974;2023-05-19T13:33:44;8.75;;;3.00;;
57561;SDS011;43397;51.530;5.974;2023-05-19T13:36:11;9.82;;;2.75;;
57561;SDS011;43397;51.530;5.974;2023-05-19T13:38:36;7.40;;;2.75;;
57561;SDS011;43397;51.530;5.974;2023-05-19T13:41:02;7.63;;;2.80;;
57561;SDS011;43397;51.530;5.974;2023-05-19T13:43:28;6.82;;;2.80;;
57561;SDS011;43397;51.530;5.974;2023-05-19T13:45:53;6.75;;;2.92;;
57561;SDS011;43397;51.530;5.974;2023-05-19T13:48:19;4.90;;;2.53;;
57561;SDS011;43397;51.530;5.974;2023-05-19T13:50:45;7.50;;;2.90;;
57561;SDS011;43397;51.530;5.974;2023-05-19T13:53:11;6.97;;;2.45;;
57561;SDS011;43397;51.530;5.974;2023-05-19T13:55:37;9.07;;;2.70;;
57561;SDS011;43397;51.530;5.974;2023-05-19T13:58:03;8.23;;;2.60;;
57561;SDS011;43397;51.530;5.974;2023-05-19T14:00:29;8.15;;;2.92;;
57561;SDS011;43397;51.530;5.974;2023-05-19T14:02:55;6.40;;;2.63;;
57561;SDS011;43397;51.530;5.974;2023-05-19T14:05:21;6.18;;;2.88;;
57561;SDS011;43397;51.530;5.974;2023-05-19T14:07:47;8.02;;;2.90;;
57561;SDS011;43397;51.530;5.974;2023-05-19T14:10:14;9.02;;;3.10;;
57561;SDS011;43397;51.530;5.974;2023-05-19T14:12:39;9.20;;;3.38;;
57561;SDS011;43397;51.530;5.974;2023-05-19T14:15:05;8.32;;;2.90;;
57561;SDS011;43397;51.530;5.974;2023-05-19T14:17:32;7.88;;;2.80;;
57561;SDS011;43397;51.530;5.974;2023-05-19T14:19:58;7.78;;;2.92;;
57561;SDS011;43397;51.530;5.974;2023-05-19T14:22:24;10.35;;;3.10;;
57561;SDS011;43397;51.530;5.974;2023-05-19T14:24:50;8.43;;;2.80;;
57561;SDS011;43397;51.530;5.974;2023-05-19T14:27:17;7.07;;;3.10;;
57561;SDS011;43397;51.530;5.974;2023-05-19T14:29:42;9.93;;;2.97;;
57561;SDS011;43397;51.530;5.974;2023-05-19T14:32:08;7.65;;;2.63;;
57561;SDS011;43397;51.530;5.974;2023-05-19T14:34:34;6.13;;;2.58;;
57561;SDS011;43397;51.530;5.974;2023-05-19T14:36:59;8.52;;;3.00;;
57561;SDS011;43397;51.530;5.974;2023-05-19T14:39:25;9.00;;;3.25;;
57561;SDS011;43397;51.530;5.974;2023-05-19T14:41:51;10.13;;;3.15;;
57561;SDS011;43397;51.530;5.974;2023-05-19T14:44:18;10.02;;;3.00;;
57561;SDS011;43397;51.530;5.974;2023-05-19T14:46:44;7.82;;;2.97;;